Terminal Aerodrome Forecast
Issued by NWS Omaha/Valley, NE

Home | Current Version | Previous Version | Text Only | Print | Product List | Glossary On
Versions: 1 2 3 4 5 6 7 8 9 10 11 12 13 14 15 16 17 18 19 20 21 22 23 24 25 26
492
FTUS43 KOAX 281123
TAFOMA
TAF
KOMA 281123Z 2812/2912 19010G18KT P6SM BKN110
     FM282000 22009KT P6SM SCT035
     FM290100 27006KT P6SM SCT200
     FM290800 17006KT P6SM BKN200=

USA.gov is the U.S. government's official web portal to all federal, state and local government web resources and services.